< Typhoon 201726 2017 Season Typhoon 201801 >
Typhoon 201727 (TEMBIN)
General InformationDetailed Track InformationTrack Information on Google MapsForecast History on Google MapsAccess Analytics MapList of All Images || NewsDisaster Info.WeblogTrackbackTyphoon FrontTwiphoonTyphoon Now!Typhoon ImaginationJMA Disaster Info. XMLResourceGoogle EarthGE AnimationAtom FeedGeoJSON
Detalied Best Track Wind (Time Zone = UTC)
Year Month Day Hour Lat. Long. Wind (kt) Gust (kt) Direc. of Major Storm Axis Radius of Major Storm Axis (nm) Radius of Minor Storm Axis (nm) Direc. of Major Gale Axis Radius of Major Gale Axis (nm) Radius of Minor Gale Axis (nm) Image
2017 12 20 00 8.1 134.2 0 0 - - - - - - Image
2017 12 20 06 8.5 133.0 0 0 - - - - - - Image
2017 12 20 12 8.7 131.9 0 0 - - - - - - Image
2017 12 20 18 8.6 130.9 35 0 - - - symmetric 90 90 Image
2017 12 21 00 8.6 129.9 40 0 - - - N 150 90 Image
2017 12 21 06 8.4 129.0 45 0 - - - N 150 90 Image
2017 12 21 12 8.1 128.0 45 0 - - - N 150 90 Image
2017 12 21 18 7.8 126.8 50 0 - - - N 150 90 Image
2017 12 22 00 7.7 125.2 45 0 - - - N 150 90 Image
2017 12 22 06 7.9 123.6 40 0 - - - N 150 90 Image
2017 12 22 12 8.0 122.5 45 0 - - - NW 180 90 Image
2017 12 22 18 7.8 121.4 50 0 - - - NW 180 90 Image
2017 12 23 00 7.7 120.3 55 0 symmetric 40 40 NW 180 90 Image
2017 12 23 06 7.8 118.8 60 0 symmetric 40 40 NW 180 90 Image
2017 12 23 12 7.8 117.5 65 0 symmetric 40 40 NW 180 90 Image
2017 12 23 18 8.1 115.9 65 0 symmetric 40 40 NW 180 90 Image
2017 12 24 00 8.1 114.7 70 0 symmetric 40 40 NW 180 90 Image
2017 12 24 06 8.2 113.3 70 0 symmetric 40 40 NW 210 90 Image
2017 12 24 12 8.3 112.0 65 0 symmetric 40 40 NW 240 90 Image
2017 12 24 18 8.1 111.0 55 0 symmetric 40 40 NW 270 90 Image
2017 12 25 00 8.0 109.9 45 0 - - - NW 270 90 Image
2017 12 25 06 8.1 108.8 40 0 - - - NW 270 90 Image
2017 12 25 12 8.7 107.7 0 0 - - - - - - Image
2017 12 25 18 8.5 105.7 0 0 - - - - - - Image
2017 12 26 00 8.4 104.4 0 0 - - - - - - Image
2017 12 26 06 8.6 103.6 0 0 - - - - - - Image
Japan Meteorological Agency Best Track Data | Correction Date : 2018-01-26
< Typhoon 201726 2017 Season Typhoon 201801 >

Help